Time;durP1;ratioP1;P1;durP2;ratioP2;P2;SDS_P1;SDS_P2;PMS_P1;PMS_P2;Temp;Humidity;BMP_temperature;BMP_pressure;BME280_temperature;BME280_humidity;BME280_pressure;Samples;Min_cycle;Max_cycle;Signal;HPM_P1;HPM_P2
2024/03/01 00:01:51;;;;;;;7.88;2.85;;;8.70;99.90;;;;;;5038285;28;19913;-79
2024/03/01 00:04:17;;;;;;;5.97;2.70;;;8.70;99.90;;;;;;5038353;28;20026;-79
2024/03/01 00:06:43;;;;;;;6.28;2.72;;;8.70;99.90;;;;;;5038997;28;20101;-80
2024/03/01 00:09:09;;;;;;;10.10;2.95;;;8.70;99.90;;;;;;5039309;28;20060;-79
2024/03/01 00:11:35;;;;;;;6.32;2.88;;;8.70;99.90;;;;;;5040104;28;20021;-80
2024/03/01 00:14:01;;;;;;;8.52;2.85;;;8.70;99.90;;;;;;5040134;28;20028;-80
2024/03/01 00:16:27;;;;;;;10.30;3.38;;;8.70;99.90;;;;;;5037387;28;20029;-79
2024/03/01 00:18:53;;;;;;;7.28;2.55;;;8.70;99.90;;;;;;5038644;28;20036;-79
2024/03/01 00:21:18;;;;;;;8.38;2.63;;;8.70;99.90;;;;;;5037350;28;20022;-80
2024/03/01 00:23:45;;;;;;;7.60;2.67;;;8.70;99.90;;;;;;5036477;28;20033;-80
2024/03/01 00:26:11;;;;;;;7.30;2.72;;;;;;;;;;5038557;28;20060;-79
2024/03/01 00:28:37;;;;;;;7.25;2.10;;;8.70;99.90;;;;;;5036935;28;20041;-80
2024/03/01 00:31:03;;;;;;;7.45;2.40;;;8.70;99.90;;;;;;5039621;28;20481;-79
2024/03/01 00:33:29;;;;;;;6.13;2.67;;;8.80;99.90;;;;;;5039216;28;20497;-80
2024/03/01 00:35:55;;;;;;;5.90;2.28;;;8.80;99.90;;;;;;5037146;28;20025;-79
2024/03/01 00:38:21;;;;;;;4.45;2.38;;;8.70;99.90;;;;;;5038764;28;20081;-80
2024/03/01 00:40:47;;;;;;;6.68;2.45;;;8.70;99.90;;;;;;5036613;28;20396;-80
2024/03/01 00:43:12;;;;;;;6.75;2.33;;;8.80;99.90;;;;;;5035980;28;20021;-80
2024/03/01 00:45:39;;;;;;;9.55;3.60;;;8.70;99.90;;;;;;5036240;28;20022;-80
2024/03/01 00:48:09;;;;;;;4.50;1.95;;;8.70;99.90;;;;;;5037661;28;20044;-80
2024/03/01 00:50:35;;;;;;;7.30;2.40;;;8.70;99.90;;;;;;5038097;28;20029;-80
2024/03/01 00:53:01;;;;;;;10.45;2.88;;;8.80;99.90;;;;;;5038518;28;20026;-80
2024/03/01 00:55:27;;;;;;;7.28;2.30;;;8.70;99.90;;;;;;5038261;28;20025;-80
2024/03/01 00:57:53;;;;;;;9.90;2.83;;;8.70;99.90;;;;;;5037307;28;20021;-80
2024/03/01 01:00:18;;;;;;;7.35;2.40;;;8.70;99.90;;;;;;5037957;28;20026;-80
2024/03/01 01:02:44;;;;;;;5.78;1.98;;;8.70;99.90;;;;;;5040109;28;20030;-80
2024/03/01 01:05:11;;;;;;;4.70;2.03;;;8.70;99.90;;;;;;5046801;28;20020;-80
2024/03/01 01:07:37;;;;;;;3.83;1.80;;;8.70;99.90;;;;;;5046195;28;20018;-81
2024/03/01 01:10:04;;;;;;;4.63;2.20;;;8.70;99.90;;;;;;5047586;28;20021;-81
2024/03/01 01:12:30;;;;;;;9.00;2.42;;;8.60;99.90;;;;;;5046510;28;20048;-80
2024/03/01 01:14:56;;;;;;;6.45;2.40;;;8.70;99.90;;;;;;5047222;28;20535;-81
2024/03/01 01:17:22;;;;;;;3.65;1.88;;;8.70;99.90;;;;;;5046466;28;20026;-81
2024/03/01 01:19:47;;;;;;;5.22;1.90;;;8.70;99.90;;;;;;5045722;28;20013;-80
2024/03/01 01:22:13;;;;;;;4.05;1.48;;;8.70;99.90;;;;;;5044514;28;20025;-80
2024/03/01 01:24:39;;;;;;;6.22;2.67;;;8.70;99.90;;;;;;5045254;28;20047;-80
2024/03/01 01:27:04;;;;;;;5.55;2.83;;;8.70;99.90;;;;;;5045024;28;20017;-81
2024/03/01 01:29:31;;;;;;;4.88;2.15;;;;;;;;;;5044889;28;20048;-80
2024/03/01 01:31:57;;;;;;;4.95;1.70;;;8.60;99.90;;;;;;5046048;28;20021;-80
2024/03/01 01:34:23;;;;;;;4.38;1.73;;;8.60;99.90;;;;;;5045763;28;20017;-81
2024/03/01 01:36:49;;;;;;;6.03;2.08;;;8.70;99.90;;;;;;5045157;28;20033;-80
2024/03/01 01:39:14;;;;;;;5.25;1.98;;;8.60;99.90;;;;;;5047706;28;20033;-80
2024/03/01 01:41:40;;;;;;;7.72;2.33;;;8.60;99.90;;;;;;5046463;28;20034;-80
2024/03/01 01:44:06;;;;;;;6.25;1.55;;;8.60;99.90;;;;;;5045334;28;20033;-80
2024/03/01 01:46:32;;;;;;;5.63;2.10;;;8.60;99.90;;;;;;5045515;28;20025;-80
2024/03/01 01:48:58;;;;;;;7.63;2.10;;;8.60;99.90;;;;;;5044827;28;20029;-79
2024/03/01 01:51:25;;;;;;;3.90;1.45;;;8.60;99.90;;;;;;5036465;28;20488;-80
2024/03/01 01:53:51;;;;;;;5.63;1.98;;;8.60;99.90;;;;;;5037498;28;20017;-79
2024/03/01 01:56:18;;;;;;;4.65;2.13;;;8.60;99.90;;;;;;5036288;28;20056;-79
2024/03/01 01:58:45;;;;;;;4.22;1.80;;;8.60;99.90;;;;;;5037248;28;20109;-80
2024/03/01 02:01:11;;;;;;;4.90;1.85;;;8.60;99.90;;;;;;5035755;28;20484;-79
2024/03/01 02:03:38;;;;;;;5.82;1.13;;;8.60;99.90;;;;;;5039163;28;20033;-80
2024/03/01 02:06:05;;;;;;;4.63;2.00;;;8.70;99.90;;;;;;5039664;28;20540;-79
2024/03/01 02:08:35;;;;;;;4.93;2.00;;;8.60;99.90;;;;;;5040911;28;20021;-80
2024/03/01 02:11:02;;;;;;;4.93;1.90;;;8.70;99.90;;;;;;5039206;28;20026;-80
2024/03/01 02:13:28;;;;;;;5.07;1.52;;;8.70;99.90;;;;;;5040897;28;20017;-80
2024/03/01 02:15:55;;;;;;;6.97;2.25;;;8.70;99.90;;;;;;5042015;28;20025;-83
2024/03/01 02:18:21;;;;;;;3.83;0.93;;;8.70;99.90;;;;;;5041111;28;20482;-83
2024/03/01 02:21:01;;;;;;;4.60;1.13;;;8.80;99.90;;;;;;5041092;28;20075;-83
2024/03/01 02:23:27;;;;;;;4.07;1.30;;;8.80;99.90;;;;;;5040496;28;20031;-83
2024/03/01 02:25:53;;;;;;;3.28;1.40;;;8.80;99.90;;;;;;5040763;28;20093;-83
2024/03/01 02:28:19;;;;;;;3.63;1.20;;;;;;;;;;5042069;28;20029;-83
2024/03/01 02:30:45;;;;;;;2.60;1.33;;;8.90;99.90;;;;;;5040394;28;20030;-83
2024/03/01 02:33:11;;;;;;;2.33;1.02;;;8.90;99.90;;;;;;5041005;28;20535;-83
2024/03/01 02:35:37;;;;;;;3.72;1.75;;;8.80;99.90;;;;;;5041286;28;20028;-83
2024/03/01 02:38:03;;;;;;;4.07;1.05;;;8.90;99.90;;;;;;5040278;28;20066;-83
2024/03/01 02:40:29;;;;;;;2.58;1.00;;;8.90;99.90;;;;;;5040227;28;20547;-83
2024/03/01 02:42:55;;;;;;;6.55;1.50;;;8.90;99.90;;;;;;5040512;28;20025;-83
2024/03/01 02:45:21;;;;;;;3.95;0.88;;;8.90;99.90;;;;;;5042254;28;20056;-83
2024/03/01 02:47:47;;;;;;;3.75;1.30;;;8.90;99.90;;;;;;5040695;28;20028;-83
2024/03/01 02:50:13;;;;;;;3.95;1.33;;;;;;;;;;5040713;28;20020;-83
2024/03/01 02:52:40;;;;;;;2.60;1.00;;;8.90;99.90;;;;;;5040868;28;20025;-83
2024/03/01 02:55:06;;;;;;;5.95;1.40;;;8.90;99.90;;;;;;5040633;28;20010;-82
2024/03/01 02:57:32;;;;;;;4.80;1.35;;;8.90;99.90;;;;;;5040400;28;20108;-83
2024/03/01 02:59:57;;;;;;;5.22;1.10;;;8.90;99.90;;;;;;5041604;28;20029;-81
2024/03/01 03:02:23;;;;;;;3.55;0.93;;;8.80;99.90;;;;;;5041524;28;20044;-83
2024/03/01 03:04:49;;;;;;;6.53;1.63;;;;;;;;;;5040777;28;20044;-83
2024/03/01 03:07:15;;;;;;;3.08;1.35;;;;;;;;;;5043196;28;20048;-83
2024/03/01 03:09:44;;;;;;;3.15;1.15;;;8.80;99.90;;;;;;5041995;28;20037;-83
2024/03/01 03:12:11;;;;;;;4.82;1.27;;;8.80;99.90;;;;;;5039458;28;20515;-83
2024/03/01 03:14:37;;;;;;;4.05;1.38;;;8.80;99.90;;;;;;5040246;28;20014;-83
2024/03/01 03:17:06;;;;;;;4.35;1.85;;;8.80;99.90;;;;;;5039803;28;20108;-83
2024/03/01 03:19:33;;;;;;;2.67;1.48;;;8.80;99.90;;;;;;5039843;28;20057;-83
2024/03/01 03:21:58;;;;;;;4.43;1.60;;;8.80;99.90;;;;;;5040280;28;20032;-83
2024/03/01 03:24:24;;;;;;;4.95;2.20;;;8.70;99.90;;;;;;5039652;28;20026;-83
2024/03/01 03:26:49;;;;;;;5.28;1.73;;;8.70;99.90;;;;;;5038791;28;20108;-83
2024/03/01 03:29:15;;;;;;;5.00;1.25;;;;;;;;;;5039258;28;20572;-83
2024/03/01 03:31:43;;;;;;;1.90;0.68;;;8.70;99.90;;;;;;5038840;28;20074;-82
2024/03/01 03:34:11;;;;;;;1.58;0.20;;;8.70;99.90;;;;;;5039857;28;20026;-83
2024/03/01 03:36:37;;;;;;;0.30;0.10;;;8.70;99.90;;;;;;5038681;28;20033;-82
2024/03/01 03:39:06;;;;;;;0.35;0.10;;;8.50;99.90;;;;;;5039762;28;20026;-83
2024/03/01 03:41:32;;;;;;;0.47;0.00;;;;;;;;;;5037959;28;20447;-83
2024/03/01 03:43:58;;;;;;;2.38;0.00;;;8.20;99.90;;;;;;5039135;28;20033;-82
2024/03/01 03:46:28;;;;;;;0.38;0.00;;;8.00;99.90;;;;;;5045768;28;20044;-82
2024/03/01 03:48:53;;;;;;;0.57;0.00;;;7.70;99.90;;;;;;5052826;28;20055;-81
2024/03/01 03:51:26;;;;;;;0.57;0.00;;;7.50;99.90;;;;;;5054669;28;20505;-81
2024/03/01 03:53:56;;;;;;;0.70;0.00;;;;;;;;;;5054011;28;20029;-81
2024/03/01 03:56:22;;;;;;;1.55;0.00;;;;;;;;;;5049885;28;20497;-82
2024/03/01 03:58:49;;;;;;;5.97;0.43;;;;;;;;;;5051286;28;20033;-82
2024/03/01 04:01:15;;;;;;;2.92;0.00;;;7.10;99.90;;;;;;5043912;28;20067;-82
2024/03/01 04:03:41;;;;;;;1.63;0.00;;;9.40;99.90;;;;;;5043138;28;20014;-82
2024/03/01 04:06:08;;;;;;;2.72;0.00;;;7.00;99.90;;;;;;5044941;28;20025;-82
2024/03/01 04:08:37;;;;;;;0.85;0.20;;;6.90;99.90;;;;;;5038627;28;20026;-82
2024/03/01 04:11:05;;;;;;;0.73;0.10;;;6.90;99.90;;;;;;5038283;28;20063;-82
2024/03/01 04:13:32;;;;;;;0.35;0.00;;;6.80;99.90;;;;;;5039868;28;20500;-83
2024/03/01 04:15:58;;;;;;;1.73;0.15;;;7.20;99.90;;;;;;5040336;28;20018;-82
2024/03/01 04:18:27;;;;;;;3.25;0.00;;;6.80;99.90;;;;;;5037804;28;20033;-82
2024/03/01 04:20:57;;;;;;;4.20;0.20;;;6.80;99.90;;;;;;5038434;28;20009;-82
2024/03/01 04:23:23;;;;;;;1.65;0.20;;;8.70;99.90;;;;;;5037954;28;20021;-82
2024/03/01 04:25:51;;;;;;;1.85;0.10;;;6.70;99.90;;;;;;5037849;28;20029;-83
2024/03/01 04:28:25;;;;;;;3.20;0.10;;;6.70;99.90;;;;;;5038549;28;20394;-83
2024/03/01 04:30:50;;;;;;;0.00;0.00;;;6.80;99.90;;;;;;5037344;28;20021;-83
2024/03/01 04:33:16;;;;;;;0.50;0.00;;;6.70;99.90;;;;;;5037185;28;20017;-83
2024/03/01 04:35:41;;;;;;;3.15;0.00;;;7.10;99.90;;;;;;5038674;28;20013;-82
2024/03/01 04:38:07;;;;;;;0.65;0.00;;;6.70;99.90;;;;;;5036867;28;20033;-82
2024/03/01 04:40:33;;;;;;;1.35;0.00;;;6.70;99.90;;;;;;5037399;28;20021;-83
2024/03/01 04:42:59;;;;;;;1.95;0.05;;;6.70;99.90;;;;;;5038458;28;20029;-82
2024/03/01 04:45:26;;;;;;;0.65;0.22;;;6.70;99.90;;;;;;5038688;28;20032;-82
2024/03/01 04:47:52;;;;;;;1.13;0.00;;;6.70;99.90;;;;;;5041348;28;20036;-81
2024/03/01 04:50:18;;;;;;;2.25;0.30;;;6.70;99.90;;;;;;5040178;28;20017;-82
2024/03/01 04:52:44;;;;;;;2.53;0.10;;;6.60;99.90;;;;;;5037076;28;20026;-83
2024/03/01 04:55:10;;;;;;;2.22;0.47;;;6.60;99.90;;;;;;5037451;28;20044;-82
2024/03/01 04:57:35;;;;;;;1.27;0.00;;;6.60;99.90;;;;;;5038692;28;20033;-82
2024/03/01 05:00:15;;;;;;;0.88;0.03;;;6.60;99.90;;;;;;5037845;28;20053;-83
2024/03/01 05:02:42;;;;;;;3.55;0.00;;;6.60;99.90;;;;;;5036906;28;20029;-82
2024/03/01 05:05:12;;;;;;;0.20;0.00;;;6.60;99.90;;;;;;5036758;28;20151;-82
2024/03/01 05:07:39;;;;;;;2.10;0.10;;;6.50;99.90;;;;;;5036288;28;20021;-82
2024/03/01 05:10:11;;;;;;;1.92;0.03;;;6.50;99.90;;;;;;5039117;28;20068;-83
2024/03/01 05:12:38;;;;;;;1.58;0.20;;;;;;;;;;5036896;28;20013;-82
2024/03/01 05:15:05;;;;;;;1.55;0.03;;;6.50;99.90;;;;;;5036231;28;20017;-83
2024/03/01 05:17:32;;;;;;;4.30;0.10;;;6.50;99.90;;;;;;5037110;28;20099;-83
2024/03/01 05:19:58;;;;;;;4.93;0.47;;;6.50;99.90;;;;;;5037278;28;20029;-83
2024/03/01 05:22:25;;;;;;;2.75;0.00;;;;;;;;;;5037242;28;20029;-83
2024/03/01 05:24:50;;;;;;;2.45;0.00;;;6.50;99.90;;;;;;5038503;28;20075;-83
2024/03/01 05:27:16;;;;;;;1.33;0.05;;;6.50;99.90;;;;;;5036388;28;20021;-83
2024/03/01 05:29:42;;;;;;;1.90;0.05;;;6.40;99.90;;;;;;5036813;28;20029;-83
2024/03/01 05:32:08;;;;;;;3.00;0.00;;;6.40;99.90;;;;;;5036342;28;20017;-83
2024/03/01 05:34:34;;;;;;;1.00;0.00;;;6.50;99.90;;;;;;5037042;28;20016;-83
2024/03/01 05:37:02;;;;;;;2.60;0.00;;;7.70;99.90;;;;;;5038255;28;20033;-82
2024/03/01 05:39:28;;;;;;;2.83;0.52;;;;;;;;;;5040550;28;20028;-83
2024/03/01 05:41:54;;;;;;;1.08;0.08;;;6.40;99.90;;;;;;5040002;28;20031;-82
2024/03/01 05:44:20;;;;;;;2.05;0.10;;;6.50;99.90;;;;;;5040820;28;20057;-81
2024/03/01 05:46:48;;;;;;;1.35;0.00;;;6.50;99.90;;;;;;5041786;28;20083;-83
2024/03/01 05:49:14;;;;;;;1.65;0.35;;;;;;;;;;5041300;28;20535;-83
2024/03/01 05:51:40;;;;;;;2.40;0.30;;;;;;;;;;5040675;28;20412;-83
2024/03/01 05:54:06;;;;;;;1.85;0.00;;;6.30;99.90;;;;;;5040624;28;20025;-82
2024/03/01 05:56:32;;;;;;;1.02;0.00;;;6.30;99.90;;;;;;5040892;28;20115;-83
2024/03/01 05:58:58;;;;;;;0.75;0.00;;;;;;;;;;5042598;28;20025;-82
2024/03/01 06:01:24;;;;;;;2.80;0.00;;;6.20;99.90;;;;;;5039001;28;20040;-79
2024/03/01 06:03:50;;;;;;;2.60;0.00;;;6.10;99.90;;;;;;5039674;28;20025;-79
2024/03/01 06:06:18;;;;;;;4.13;0.28;;;6.10;99.90;;;;;;5039293;28;20051;-79
2024/03/01 06:08:48;;;;;;;2.33;0.25;;;6.00;99.90;;;;;;5039298;28;20021;-79
2024/03/01 06:11:14;;;;;;;1.73;0.00;;;6.00;99.90;;;;;;5041318;28;20038;-79
2024/03/01 06:13:41;;;;;;;3.88;0.28;;;;;;;;;;5041898;28;20078;-79
2024/03/01 06:16:07;;;;;;;4.85;0.30;;;5.80;99.90;;;;;;5040544;28;20112;-79
2024/03/01 06:18:33;;;;;;;4.93;0.32;;;5.80;99.90;;;;;;5039630;28;20030;-79
2024/03/01 06:20:58;;;;;;;7.20;0.30;;;5.70;99.90;;;;;;5042965;28;20040;-78
2024/03/01 06:23:28;;;;;;;1.20;0.20;;;5.70;99.90;;;;;;5048291;28;20029;-79
2024/03/01 06:25:54;;;;;;;4.60;0.47;;;5.70;99.90;;;;;;5043285;28;20509;-78
2024/03/01 06:28:19;;;;;;;6.20;0.47;;;5.70;99.90;;;;;;5041077;28;20030;-78
2024/03/01 06:30:45;;;;;;;3.03;0.25;;;5.60;99.90;;;;;;5041594;28;20026;-78
2024/03/01 06:33:13;;;;;;;4.15;0.22;;;5.60;99.90;;;;;;5043831;28;20465;-78
2024/03/01 06:35:39;;;;;;;5.45;0.55;;;5.60;99.90;;;;;;5045211;28;20397;-79
2024/03/01 06:38:05;;;;;;;0.68;0.20;;;5.60;99.90;;;;;;5048431;28;20040;-79
2024/03/01 06:40:34;;;;;;;2.63;0.30;;;6.60;99.90;;;;;;5042276;28;20014;-78
2024/03/01 06:43:00;;;;;;;1.75;0.20;;;5.70;99.90;;;;;;5039925;28;20053;-79
2024/03/01 06:45:26;;;;;;;3.83;0.50;;;5.70;99.90;;;;;;5044403;28;20086;-79
2024/03/01 06:47:52;;;;;;;2.67;0.13;;;5.70;99.90;;;;;;5040682;28;20446;-79
2024/03/01 06:50:17;;;;;;;2.40;0.57;;;5.70;99.90;;;;;;5042015;28;20061;-78
2024/03/01 06:52:43;;;;;;;2.20;0.20;;;5.70;99.90;;;;;;5040395;28;20053;-77
2024/03/01 06:55:09;;;;;;;3.67;0.22;;;5.80;99.90;;;;;;5037927;28;20431;-78
2024/03/01 06:57:34;;;;;;;2.67;0.15;;;5.70;99.90;;;;;;5039516;28;20040;-78
2024/03/01 07:00:03;;;;;;;3.92;0.10;;;5.70;99.90;;;;;;5042753;28;20080;-78
2024/03/01 07:02:29;;;;;;;2.97;0.20;;;5.80;99.90;;;;;;5038243;28;20079;-78
2024/03/01 07:04:55;;;;;;;2.55;0.10;;;5.70;99.90;;;;;;5040621;28;20140;-79
2024/03/01 07:07:20;;;;;;;1.40;0.25;;;5.70;99.90;;;;;;5042160;28;20073;-79
2024/03/01 07:09:46;;;;;;;8.35;0.10;;;5.70;99.90;;;;;;5039616;28;20013;-78
2024/03/01 07:12:12;;;;;;;1.17;0.25;;;5.60;99.90;;;;;;5041896;28;20026;-79
2024/03/01 07:14:37;;;;;;;1.67;0.40;;;5.60;99.90;;;;;;5042740;28;20037;-79
2024/03/01 07:17:03;;;;;;;2.17;0.10;;;5.60;99.90;;;;;;5049336;28;20358;-79
2024/03/01 07:19:29;;;;;;;0.75;0.20;;;5.60;99.90;;;;;;5046322;28;20025;-79
2024/03/01 07:21:54;;;;;;;1.38;0.20;;;5.60;99.90;;;;;;5040703;28;20416;-77
2024/03/01 07:24:20;;;;;;;2.28;0.00;;;5.60;99.90;;;;;;5036084;28;20025;-77
2024/03/01 07:26:45;;;;;;;1.75;0.63;;;5.60;99.90;;;;;;5035318;28;20519;-77
2024/03/01 07:29:11;;;;;;;5.53;0.65;;;5.60;99.90;;;;;;5035457;28;20100;-77
2024/03/01 07:31:37;;;;;;;1.27;0.10;;;5.60;99.90;;;;;;5036456;28;20097;-76
2024/03/01 07:34:02;;;;;;;2.65;0.25;;;5.60;99.90;;;;;;5037224;28;20029;-77
2024/03/01 07:36:28;;;;;;;2.72;0.20;;;5.60;99.90;;;;;;5038739;28;20022;-77
2024/03/01 07:38:54;;;;;;;3.20;0.40;;;5.70;99.90;;;;;;5037295;28;20108;-76
2024/03/01 07:41:21;;;;;;;1.80;0.43;;;5.70;99.90;;;;;;5037916;28;20032;-77
2024/03/01 07:43:49;;;;;;;3.38;0.68;;;5.80;99.90;;;;;;5036440;28;20061;-77
2024/03/01 07:46:16;;;;;;;3.00;0.68;;;5.80;99.90;;;;;;5036045;28;20041;-77
2024/03/01 07:48:45;;;;;;;4.78;0.95;;;5.80;99.90;;;;;;5036033;28;20033;-77
2024/03/01 07:51:14;;;;;;;4.72;1.20;;;5.90;99.90;;;;;;5044027;28;20072;-78
2024/03/01 07:53:43;;;;;;;5.13;1.27;;;6.00;99.90;;;;;;5037913;28;20469;-78
2024/03/01 07:56:10;;;;;;;5.30;0.90;;;6.20;99.90;;;;;;5037550;28;20144;-78
2024/03/01 07:58:36;;;;;;;3.58;1.25;;;6.30;99.90;;;;;;5040803;28;20029;-77
2024/03/01 08:01:01;;;;;;;3.03;1.45;;;6.30;99.90;;;;;;5035826;28;20034;-78
2024/03/01 08:03:27;;;;;;;7.28;2.03;;;6.30;99.90;;;;;;5039632;28;20384;-77
2024/03/01 08:05:53;;;;;;;6.90;1.50;;;6.30;99.90;;;;;;5035582;28;20124;-77
2024/03/01 08:08:40;;;;;;;4.43;1.65;;;6.40;99.90;;;;;;5036110;28;20026;-77
2024/03/01 08:11:10;;;;;;;9.20;2.65;;;6.40;99.90;;;;;;5032935;28;20529;-77
2024/03/01 08:13:36;;;;;;;9.23;1.77;;;6.40;99.90;;;;;;5035892;28;20059;-77
2024/03/01 08:16:13;;;;;;;5.03;1.60;;;6.60;99.90;;;;;;5035531;28;20385;-77
2024/03/01 08:18:42;;;;;;;5.78;2.03;;;6.60;99.90;;;;;;5034593;28;20028;-77
2024/03/01 08:21:13;;;;;;;5.28;1.77;;;6.80;99.90;;;;;;5034725;28;20075;-78
2024/03/01 08:23:41;;;;;;;8.73;2.80;;;6.80;99.90;;;;;;5034082;28;20556;-77
2024/03/01 08:26:26;;;;;;;11.10;3.05;;;6.90;99.90;;;;;;5036225;28;20079;-77
2024/03/01 08:28:52;;;;;;;7.60;2.55;;;6.90;99.90;;;;;;5036525;28;20029;-78
2024/03/01 08:31:35;;;;;;;8.82;2.80;;;7.00;99.90;;;;;;5038403;28;20071;-77
2024/03/01 08:34:10;;;;;;;8.25;3.47;;;7.00;99.90;;;;;;5035689;28;20413;-77
2024/03/01 08:36:37;;;;;;;10.85;3.92;;;7.00;99.90;;;;;;5036665;28;20108;-78
2024/03/01 08:39:15;;;;;;;12.63;3.75;;;7.00;99.90;;;;;;5036203;28;20076;-78
2024/03/01 08:41:45;;;;;;;8.65;4.00;;;7.00;99.90;;;;;;5035994;28;20037;-77
2024/03/01 08:44:38;;;;;;;8.80;3.72;;;7.10;99.90;;;;;;5036002;28;20018;-77
2024/03/01 08:47:06;;;;;;;10.90;4.07;;;7.10;99.90;;;;;;5035629;28;20393;-77
2024/03/01 08:49:37;;;;;;;12.52;4.03;;;7.20;99.90;;;;;;5035506;28;20393;-78
2024/03/01 08:52:28;;;;;;;10.23;3.95;;;7.20;99.90;;;;;;5033719;28;20053;-77
2024/03/01 08:54:58;;;;;;;10.23;3.58;;;7.30;99.90;;;;;;5033977;28;20017;-77
2024/03/01 08:57:28;;;;;;;11.35;4.05;;;7.30;99.90;;;;;;5035706;28;20025;-77
2024/03/01 08:59:53;;;;;;;8.60;3.75;;;7.40;99.90;;;;;;5036920;28;20504;-77
2024/03/01 09:02:34;;;;;;;8.80;3.65;;;7.40;99.90;;;;;;5033927;28;20036;-77
2024/03/01 09:05:00;;;;;;;13.73;3.35;;;7.40;99.90;;;;;;5035560;28;20026;-77
2024/03/01 09:07:29;;;;;;;9.15;3.33;;;7.50;99.90;;;;;;5032946;28;20048;-77
2024/03/01 09:09:55;;;;;;;6.45;2.20;;;7.50;99.90;;;;;;5032963;28;20040;-77
2024/03/01 09:12:28;;;;;;;9.10;3.22;;;;;;;;;;5034349;28;20022;-77
2024/03/01 09:15:02;;;;;;;7.13;2.33;;;7.60;99.90;;;;;;5039657;28;20029;-82
2024/03/01 09:17:31;;;;;;;5.35;2.20;;;7.70;99.90;;;;;;5037225;28;20017;-76
2024/03/01 09:19:58;;;;;;;5.82;2.47;;;7.70;99.90;;;;;;5033030;28;20026;-77
2024/03/01 09:22:26;;;;;;;8.13;2.85;;;7.70;99.90;;;;;;5034048;28;20025;-76
2024/03/01 09:24:54;;;;;;;7.17;2.33;;;7.80;99.90;;;;;;5032304;28;20041;-77
2024/03/01 09:27:23;;;;;;;7.63;2.25;;;7.90;99.90;;;;;;5034619;28;20025;-76
2024/03/01 09:29:49;;;;;;;6.82;2.70;;;7.80;99.90;;;;;;5032518;28;20032;-77
2024/03/01 09:32:16;;;;;;;5.78;2.38;;;7.80;99.90;;;;;;5033523;28;20112;-77
2024/03/01 09:34:42;;;;;;;5.90;1.92;;;7.80;99.90;;;;;;5035100;28;20025;-77
2024/03/01 09:37:13;;;;;;;7.70;2.58;;;8.00;99.90;;;;;;5033166;28;20516;-77
2024/03/01 09:39:40;;;;;;;5.00;2.10;;;8.10;99.90;;;;;;5032065;28;20565;-77
2024/03/01 09:42:33;;;;;;;9.75;1.95;;;8.30;99.90;;;;;;5034160;28;20112;-77
2024/03/01 09:45:13;;;;;;;10.02;2.53;;;8.40;99.90;;;;;;5034948;28;20030;-77
2024/03/01 09:47:54;;;;;;;5.57;1.45;;;8.50;99.90;;;;;;5032824;28;20493;-76
2024/03/01 09:50:29;;;;;;;4.82;1.83;;;8.50;99.90;;;;;;5032771;28;20030;-77
2024/03/01 09:53:07;;;;;;;8.93;2.15;;;8.60;99.90;;;;;;5033480;28;20057;-76
2024/03/01 09:55:48;;;;;;;7.53;1.85;;;8.60;99.90;;;;;;5034455;28;20028;-77
2024/03/01 09:58:30;;;;;;;3.88;0.85;;;8.70;99.90;;;;;;5040790;28;20571;-81
2024/03/01 10:01:26;;;;;;;8.40;1.38;;;8.80;99.90;;;;;;5039060;28;20041;-81
2024/03/01 10:03:58;;;;;;;4.65;1.42;;;9.00;99.90;;;;;;5040179;28;20018;-81
2024/03/01 10:06:49;;;;;;;4.80;1.10;;;9.10;99.90;;;;;;5039998;28;20022;-81
2024/03/01 10:09:27;;;;;;;4.45;0.85;;;9.10;99.90;;;;;;5039844;28;20041;-81
2024/03/01 10:12:18;;;;;;;3.05;0.68;;;9.10;99.90;;;;;;5039549;28;20071;-81
2024/03/01 10:15:12;;;;;;;5.68;1.00;;;9.20;99.90;;;;;;5039302;28;20036;-80
2024/03/01 10:18:11;;;;;;;7.90;1.88;;;9.00;99.90;;;;;;5038762;28;20022;-80
2024/03/01 10:20:43;;;;;;;8.10;1.10;;;9.00;99.90;;;;;;5037623;28;20033;-81
2024/03/01 10:23:26;;;;;;;4.15;1.00;;;9.10;99.90;;;;;;5041102;28;20055;-80
2024/03/01 10:26:11;;;;;;;6.55;0.82;;;9.10;99.90;;;;;;5042060;28;20045;-80
2024/03/01 10:28:54;;;;;;;4.15;0.63;;;9.10;99.90;;;;;;5042120;28;20124;-80
2024/03/01 10:31:47;;;;;;;5.57;1.05;;;9.00;99.90;;;;;;5042766;28;20446;-82
2024/03/01 10:34:48;;;;;;;5.55;0.63;;;9.00;99.90;;;;;;5042041;28;20017;-80
2024/03/01 10:37:49;;;;;;;5.57;0.45;;;8.90;99.90;;;;;;5033211;28;20033;-80
2024/03/01 10:40:19;;;;;;;5.82;0.60;;;8.90;99.90;;;;;;5041572;28;20034;-80
2024/03/01 10:43:12;;;;;;;6.20;0.70;;;9.10;99.90;;;;;;5042987;28;20028;-80
2024/03/01 10:46:30;;;;;;;3.60;0.20;;;9.30;99.90;;;;;;5024784;28;20056;-81
2024/03/01 10:49:13;;;;;;;4.07;0.50;;;;;;;;;;5020467;28;20113;-79
2024/03/01 10:51:48;;;;;;;3.17;0.82;;;9.20;99.90;;;;;;5040981;28;20026;-82
2024/03/01 10:54:17;;;;;;;5.22;0.40;;;9.20;99.90;;;;;;5042719;28;20036;-80
2024/03/01 10:56:44;;;;;;;6.95;0.32;;;9.30;99.90;;;;;;5040763;28;20033;-80
2024/03/01 10:59:18;;;;;;;3.67;1.05;;;9.40;99.90;;;;;;5041275;28;20056;-80
2024/03/01 11:01:52;;;;;;;4.93;0.60;;;9.50;99.90;;;;;;5042602;28;20041;-80
2024/03/01 11:04:38;;;;;;;3.38;0.75;;;9.60;99.90;;;;;;5042901;28;20021;-81
2024/03/01 11:07:24;;;;;;;3.05;0.98;;;9.60;99.90;;;;;;5043233;28;20025;-79
2024/03/01 11:09:58;;;;;;;5.28;1.02;;;9.60;99.90;;;;;;5041850;28;20021;-80
2024/03/01 11:12:39;;;;;;;5.38;0.75;;;9.70;99.90;;;;;;5041083;28;20028;-80
2024/03/01 11:15:15;;;;;;;5.07;0.90;;;9.70;99.90;;;;;;5040986;28;20079;-80
2024/03/01 11:17:45;;;;;;;4.80;0.73;;;9.90;99.90;;;;;;5041653;28;20564;-81
2024/03/01 11:20:21;;;;;;;4.20;0.70;;;9.80;99.90;;;;;;5040800;28;20029;-80
2024/03/01 11:22:59;;;;;;;2.97;0.68;;;9.80;99.90;;;;;;5041064;28;20097;-80
2024/03/01 11:25:47;;;;;;;2.50;0.80;;;9.80;99.90;;;;;;5042483;28;20018;-80
2024/03/01 11:28:17;;;;;;;1.63;0.50;;;10.00;99.90;;;;;;5042017;28;20033;-80
2024/03/01 11:30:46;;;;;;;1.50;0.77;;;10.00;99.90;;;;;;5042000;28;20021;-81
2024/03/01 11:33:15;;;;;;;1.90;0.80;;;10.20;99.90;;;;;;5041189;28;20010;-80
2024/03/01 11:36:32;;;;;;;0.63;0.35;;;10.20;99.90;;;;;;5041380;28;20018;-80
2024/03/01 11:39:10;;;;;;;1.90;0.45;;;10.40;99.90;;;;;;5038288;28;20103;-81
2024/03/01 11:41:44;;;;;;;2.78;0.38;;;10.40;99.90;;;;;;5041344;28;20029;-80
2024/03/01 11:44:32;;;;;;;2.35;0.52;;;10.50;99.90;;;;;;5042267;28;20036;-80
2024/03/01 11:47:13;;;;;;;;;;;10.50;99.90;;;;;;5042648;28;20034;-80
2024/03/01 11:50:13;;;;;;;2.08;0.80;;;10.50;99.90;;;;;;5042715;28;19913;-80
2024/03/01 11:53:04;;;;;;;2.95;0.10;;;10.50;99.90;;;;;;5042648;28;20033;-80
2024/03/01 11:55:54;;;;;;;1.40;0.65;;;10.60;99.90;;;;;;5041829;28;20017;-79
2024/03/01 11:58:52;;;;;;;0.28;0.08;;;10.70;99.90;;;;;;5040030;28;20081;-80
2024/03/01 12:02:00;;;;;;;1.90;0.13;;;10.60;99.90;;;;;;5040073;28;20029;-80
2024/03/01 12:04:36;;;;;;;0.63;0.00;;;10.60;99.90;;;;;;5041618;28;20064;-81
2024/03/01 12:07:09;;;;;;;3.00;0.00;;;10.50;99.90;;;;;;5041198;28;20049;-81
2024/03/01 12:09:54;;;;;;;1.67;0.00;;;10.50;99.90;;;;;;5041010;28;20029;-80
2024/03/01 12:12:33;;;;;;;0.63;0.00;;;10.60;99.90;;;;;;5042290;28;20025;-79
2024/03/01 12:15:01;;;;;;;;;;;10.60;99.90;;;;;;5041017;28;20397;-80
2024/03/01 12:17:48;;;;;;;4.05;0.17;;;10.60;99.90;;;;;;5040471;28;20292;-79
2024/03/01 12:20:16;;;;;;;1.17;0.10;;;10.60;99.90;;;;;;5040093;28;20029;-80
2024/03/01 12:23:08;;;;;;;0.82;0.05;;;10.60;99.90;;;;;;5041060;28;20025;-79
2024/03/01 12:25:37;;;;;;;1.33;0.30;;;10.50;99.90;;;;;;5039728;28;20033;-80
2024/03/01 12:29:01;;;;;;;1.92;0.00;;;10.50;99.90;;;;;;5040199;28;20032;-80
2024/03/01 12:31:44;;;;;;;1.55;0.00;;;10.50;99.90;;;;;;5017559;28;20434;-80
2024/03/01 12:34:19;;;;;;;3.30;0.00;;;10.50;99.90;;;;;;5038913;28;20056;-82
2024/03/01 12:37:24;;;;;;;1.35;0.00;;;10.40;99.90;;;;;;5040505;28;20014;-81
2024/03/01 12:40:10;;;;;;;2.08;0.43;;;10.40;99.90;;;;;;5024483;28;20033;-81
2024/03/01 12:42:47;;;;;;;1.10;0.00;;;10.50;99.90;;;;;;5038765;28;20116;-82
2024/03/01 12:45:48;;;;;;;1.98;0.00;;;10.70;99.90;;;;;;5038958;28;20030;-79
2024/03/01 12:48:34;;;;;;;0.20;0.00;;;10.80;99.90;;;;;;5038555;28;20013;-79
2024/03/01 12:51:12;;;;;;;0.22;0.00;;;10.70;99.90;;;;;;5038661;28;20022;-79
2024/03/01 12:53:52;;;;;;;1.97;0.13;;;;;;;;;;5041234;28;20026;-81
2024/03/01 12:56:30;;;;;;;4.10;0.00;;;10.50;99.90;;;;;;5039168;28;20036;-81
2024/03/01 12:59:40;;;;;;;5.47;0.10;;;10.40;99.90;;;;;;5039266;28;20038;-81
2024/03/01 13:02:22;;;;;;;2.30;0.00;;;10.40;99.90;;;;;;5018119;28;20513;-80
2024/03/01 13:04:59;;;;;;;3.90;0.40;;;10.20;99.90;;;;;;5035409;28;20032;-79
2024/03/01 13:07:25;;;;;;;3.85;0.43;;;10.00;99.90;;;;;;5037465;28;20033;-79
2024/03/01 13:09:59;;;;;;;2.10;0.00;;;9.90;99.90;;;;;;5040052;28;20048;-80
2024/03/01 13:12:30;;;;;;;2.00;0.03;;;9.90;99.90;;;;;;5039442;28;20052;-81
2024/03/01 13:15:17;;;;;;;0.25;0.00;;;9.90;99.90;;;;;;5040196;28;20120;-82
2024/03/01 13:18:07;;;;;;;1.38;0.00;;;9.90;99.90;;;;;;5040078;28;20435;-82
2024/03/01 13:20:55;;;;;;;0.68;0.00;;;9.80;99.90;;;;;;5041049;28;20080;-79
2024/03/01 13:23:29;;;;;;;;;;;9.80;99.90;;;;;;5041637;28;20033;-80
2024/03/01 13:26:24;;;;;;;2.78;0.00;;;9.80;99.90;;;;;;5038364;28;20450;-79